createdAt,value
2022-10-22T00:01:53.339Z,8.03
2022-10-22T00:04:58.153Z,8.27
2022-10-22T00:08:01.575Z,8.00
2022-10-22T00:11:10.875Z,8.07
2022-10-22T00:14:13.995Z,7.40
2022-10-22T00:17:17.207Z,7.67
2022-10-22T00:20:22.828Z,8.10
2022-10-22T00:23:25.840Z,7.63
2022-10-22T00:26:29.129Z,8.17
2022-10-22T00:29:32.541Z,6.80
2022-10-22T00:32:35.596Z,7.67
2022-10-22T00:35:40.192Z,8.20
2022-10-22T00:38:45.776Z,7.07
2022-10-22T00:41:51.084Z,8.10
2022-10-22T00:45:21.222Z,7.47
2022-10-22T00:48:27.184Z,7.47
2022-10-22T00:51:35.275Z,7.60
2022-10-22T00:54:39.844Z,7.60
2022-10-22T00:57:43.319Z,7.27
2022-10-22T01:00:46.531Z,7.50
2022-10-22T01:03:50.322Z,7.03
2022-10-22T01:06:55.027Z,7.00
2022-10-22T01:10:06.527Z,7.70
2022-10-22T01:13:23.153Z,7.20
2022-10-22T01:16:35.341Z,6.97
2022-10-22T01:19:56.231Z,7.90
2022-10-22T01:23:07.615Z,7.43
2022-10-22T01:26:25.434Z,7.00
2022-10-22T01:29:35.083Z,7.40
2022-10-22T01:32:42.671Z,7.50
2022-10-22T01:35:47.118Z,7.40
2022-10-22T01:38:52.429Z,7.70
2022-10-22T01:41:56.892Z,7.20
2022-10-22T01:45:01.397Z,6.80
2022-10-22T01:48:17.678Z,7.40
2022-10-22T01:51:31.216Z,6.60
2022-10-22T01:54:41.556Z,7.90
2022-10-22T01:57:52.246Z,7.40
2022-10-22T02:01:01.969Z,7.00
2022-10-22T02:04:13.296Z,6.97
2022-10-22T02:07:22.384Z,7.50
2022-10-22T02:10:26.627Z,6.87
2022-10-22T02:13:35.073Z,7.10
2022-10-22T02:16:43.248Z,7.10
2022-10-22T02:19:52.364Z,7.10
2022-10-22T02:22:56.440Z,6.90
2022-10-22T02:26:04.932Z,7.40
2022-10-22T02:29:15.016Z,8.17
2022-10-22T02:32:24.292Z,7.50
2022-10-22T02:35:29.470Z,7.10
2022-10-22T02:38:34.421Z,6.77
2022-10-22T02:41:38.728Z,6.77
2022-10-22T02:44:42.000Z,7.27
2022-10-22T02:47:46.641Z,7.00
2022-10-22T02:50:49.714Z,7.20
2022-10-22T02:53:53.132Z,7.90
2022-10-22T02:56:56.241Z,6.97
2022-10-22T02:59:59.323Z,7.27
2022-10-22T03:03:03.858Z,7.60
2022-10-22T03:06:07.406Z,7.53
2022-10-22T03:09:10.475Z,6.20
2022-10-22T03:12:13.593Z,6.93
2022-10-22T03:15:16.670Z,7.03
2022-10-22T03:18:21.208Z,6.73
2022-10-22T03:21:31.631Z,7.13
2022-10-22T03:24:39.229Z,7.20
2022-10-22T03:27:43.302Z,7.30
2022-10-22T03:30:46.561Z,7.53
2022-10-22T03:33:51.061Z,8.30
2022-10-22T03:36:55.672Z,7.40
2022-10-22T03:39:59.688Z,8.13
2022-10-22T03:43:03.076Z,8.13
2022-10-22T03:46:06.407Z,7.90
2022-10-22T03:49:10.882Z,8.00
2022-10-22T03:52:15.808Z,8.10
2022-10-22T03:55:19.242Z,7.70
2022-10-22T03:58:22.464Z,7.73
2022-10-22T04:01:26.606Z,8.47
2022-10-22T04:04:31.212Z,7.80
2022-10-22T04:07:34.417Z,8.10
2022-10-22T04:10:38.120Z,8.43
2022-10-22T04:13:41.279Z,8.00
2022-10-22T04:16:44.587Z,7.90
2022-10-22T04:19:49.175Z,7.77
2022-10-22T04:22:52.526Z,8.17
2022-10-22T04:26:00.248Z,7.97
2022-10-22T04:29:03.390Z,7.70
2022-10-22T04:32:06.791Z,7.70
2022-10-22T04:35:11.556Z,8.10
2022-10-22T04:38:14.902Z,8.63
2022-10-22T04:41:20.810Z,7.70
2022-10-22T04:44:23.894Z,8.50
2022-10-22T04:47:27.047Z,8.70
2022-10-22T04:50:32.527Z,8.17
2022-10-22T04:53:36.975Z,8.43
2022-10-22T04:56:40.152Z,8.57
2022-10-22T04:59:43.280Z,8.80
2022-10-22T05:02:50.864Z,8.37
2022-10-22T05:05:56.090Z,8.43
2022-10-22T05:09:01.958Z,8.00
2022-10-22T05:12:07.160Z,8.70
2022-10-22T05:15:11.250Z,8.77
2022-10-22T05:18:16.710Z,8.03
2022-10-22T05:21:23.513Z,8.73
2022-10-22T05:24:27.549Z,8.30
2022-10-22T05:27:30.612Z,8.50
2022-10-22T05:30:34.587Z,8.33
2022-10-22T05:33:37.650Z,8.97
2022-10-22T05:36:42.121Z,8.97
2022-10-22T05:39:57.564Z,8.50
2022-10-22T05:43:09.937Z,8.20
2022-10-22T05:46:19.827Z,9.53
2022-10-22T05:49:25.142Z,8.47
2022-10-22T05:52:29.640Z,8.17
2022-10-22T05:55:37.606Z,8.63
2022-10-22T05:58:41.324Z,9.07
2022-10-22T06:01:44.574Z,8.57
2022-10-22T06:04:48.873Z,8.57
2022-10-22T06:07:56.060Z,8.43
2022-10-22T06:10:59.815Z,8.13
2022-10-22T06:14:02.883Z,7.77
2022-10-22T06:17:06.016Z,7.70
2022-10-22T06:20:10.754Z,7.70
2022-10-22T06:23:15.824Z,8.50
2022-10-22T06:26:19.026Z,8.03
2022-10-22T06:29:22.238Z,7.80
2022-10-22T06:32:25.392Z,8.97
2022-10-22T06:35:28.526Z,9.50
2022-10-22T06:38:33.242Z,7.73
2022-10-22T06:41:36.358Z,7.73
2022-10-22T06:44:39.458Z,8.57
2022-10-22T06:47:43.091Z,8.40
2022-10-22T06:50:46.705Z,7.87
2022-10-22T06:53:51.677Z,8.20
2022-10-22T06:56:54.925Z,8.57
2022-10-22T06:59:58.348Z,8.10
2022-10-22T07:03:01.435Z,7.60
2022-10-22T07:06:08.785Z,8.60
2022-10-22T07:09:13.310Z,7.30
2022-10-22T07:12:16.703Z,8.00
2022-10-22T07:15:19.764Z,7.73
2022-10-22T07:18:23.539Z,8.00
2022-10-22T07:21:26.736Z,8.17
2022-10-22T07:24:31.678Z,8.40
2022-10-22T07:27:34.892Z,7.40
2022-10-22T07:30:38.927Z,7.70
2022-10-22T07:33:42.742Z,7.67
2022-10-22T07:36:45.870Z,8.03
2022-10-22T07:39:50.599Z,7.40
2022-10-22T07:42:54.021Z,8.10
2022-10-22T07:45:57.196Z,7.57
2022-10-22T07:49:01.033Z,8.00
2022-10-22T07:52:04.393Z,7.63
2022-10-22T07:55:09.830Z,8.23
2022-10-22T07:58:12.942Z,7.63
2022-10-22T08:01:16.131Z,7.50
2022-10-22T08:04:19.278Z,7.63
2022-10-22T08:07:22.511Z,8.30
2022-10-22T08:10:27.210Z,7.93
2022-10-22T08:13:31.609Z,7.70
2022-10-22T08:16:36.689Z,7.10
2022-10-22T08:19:39.799Z,7.83
2022-10-22T08:22:42.936Z,7.33
2022-10-22T08:25:47.502Z,7.43
2022-10-22T08:28:51.117Z,7.97
2022-10-22T08:31:56.004Z,7.20
2022-10-22T08:34:59.126Z,7.27
2022-10-22T08:38:02.443Z,7.57
2022-10-22T08:41:11.895Z,7.03
2022-10-22T08:44:52.463Z,7.67
2022-10-22T08:48:19.576Z,7.50
2022-10-22T08:51:25.744Z,7.00
2022-10-22T08:54:37.974Z,7.30
2022-10-22T08:57:52.327Z,7.90
2022-10-22T09:01:01.054Z,7.00
2022-10-22T09:04:10.424Z,7.73
2022-10-22T09:07:13.511Z,7.27
2022-10-22T09:10:16.860Z,7.50
2022-10-22T09:13:23.275Z,7.80
2022-10-22T09:16:36.683Z,8.30
2022-10-22T09:19:48.296Z,8.00
2022-10-22T09:22:58.686Z,7.70
2022-10-22T09:26:01.987Z,7.83
2022-10-22T09:29:07.359Z,7.43
2022-10-22T09:32:10.633Z,6.93
2022-10-22T09:35:15.346Z,7.47
2022-10-22T09:38:21.691Z,7.23
2022-10-22T09:41:29.773Z,7.50
2022-10-22T09:44:37.654Z,7.23
2022-10-22T09:48:00.577Z,7.40
2022-10-22T09:51:13.381Z,8.07
2022-10-22T09:54:19.299Z,8.10
2022-10-22T09:57:23.604Z,7.73
2022-10-22T10:00:29.240Z,7.80
2022-10-22T10:03:34.189Z,7.53
2022-10-22T10:06:39.178Z,7.37
2022-10-22T10:09:42.282Z,7.70
2022-10-22T10:12:50.246Z,7.60
2022-10-22T10:15:59.266Z,7.60
2022-10-22T10:19:26.020Z,7.60
2022-10-22T10:22:45.489Z,7.83
2022-10-22T10:25:54.711Z,8.00
2022-10-22T10:29:08.810Z,8.00
2022-10-22T10:32:29.182Z,7.60
2022-10-22T10:35:42.007Z,7.80
2022-10-22T10:38:57.116Z,8.10
2022-10-22T10:42:07.058Z,8.93
2022-10-22T10:45:19.485Z,8.67
2022-10-22T10:48:36.180Z,7.63
2022-10-22T10:51:47.736Z,8.50
2022-10-22T10:55:01.623Z,7.93
2022-10-22T10:58:19.901Z,7.97
2022-10-22T11:01:35.812Z,8.57
2022-10-22T11:05:04.898Z,7.97
2022-10-22T11:08:14.303Z,8.27
2022-10-22T11:11:22.410Z,8.73
2022-10-22T11:14:31.973Z,8.10
2022-10-22T11:17:41.381Z,8.63
2022-10-22T11:21:05.028Z,8.50
2022-10-22T11:24:17.226Z,8.87
2022-10-22T11:27:28.308Z,8.43
2022-10-22T11:30:36.238Z,8.80
2022-10-22T11:33:45.894Z,8.13
2022-10-22T11:36:51.883Z,8.93
2022-10-22T11:39:59.834Z,9.00
2022-10-22T11:43:06.910Z,8.50
2022-10-22T11:46:28.645Z,8.80
2022-10-22T11:49:44.297Z,7.97
2022-10-22T11:53:00.932Z,9.47
2022-10-22T11:56:25.931Z,8.77
2022-10-22T11:59:40.773Z,8.87
2022-10-22T12:02:46.072Z,8.27
2022-10-22T12:06:04.759Z,8.60
2022-10-22T12:09:12.235Z,8.73
2022-10-22T12:12:17.034Z,8.10
2022-10-22T12:15:25.844Z,8.80
2022-10-22T12:18:36.175Z,8.67
2022-10-22T12:21:40.269Z,8.57
2022-10-22T12:24:47.937Z,8.60
2022-10-22T12:27:53.519Z,8.13
2022-10-22T12:31:00.445Z,8.53
2022-10-22T12:34:03.608Z,8.57
2022-10-22T12:37:07.782Z,8.43
2022-10-22T12:40:24.443Z,8.47
2022-10-22T12:43:29.841Z,8.57
2022-10-22T12:46:37.260Z,8.47
2022-10-22T12:49:44.101Z,8.73
2022-10-22T12:52:47.412Z,8.20
2022-10-22T12:55:56.173Z,7.90
2022-10-22T12:59:03.864Z,9.17
2022-10-22T13:02:18.661Z,8.23
2022-10-22T13:05:28.691Z,8.83
2022-10-22T13:08:35.434Z,8.70
2022-10-22T13:11:43.048Z,8.50
2022-10-22T13:14:47.385Z,8.37
2022-10-22T13:17:50.971Z,8.03
2022-10-22T13:20:56.017Z,8.60
2022-10-22T13:24:01.565Z,8.60
2022-10-22T13:27:10.400Z,8.63
2022-10-22T13:30:21.346Z,8.50
2022-10-22T13:33:27.741Z,8.90
2022-10-22T13:36:31.021Z,8.30
2022-10-22T13:39:35.373Z,8.57
2022-10-22T13:42:40.811Z,8.07
2022-10-22T13:45:44.613Z,9.23
2022-10-22T13:48:51.143Z,8.80
2022-10-22T13:51:56.767Z,9.03
2022-10-22T13:54:59.974Z,8.67
2022-10-22T13:58:12.027Z,8.50
2022-10-22T14:01:21.621Z,8.40
2022-10-22T14:04:24.987Z,8.70
2022-10-22T14:07:28.153Z,8.47
2022-10-22T14:10:31.741Z,8.93
2022-10-22T14:13:36.223Z,8.00
2022-10-22T14:16:41.068Z,8.30
2022-10-22T14:19:47.238Z,8.47
2022-10-22T14:22:52.088Z,8.63
2022-10-22T14:25:55.279Z,8.50
2022-10-22T14:29:15.456Z,9.07
2022-10-22T14:32:21.373Z,8.90
2022-10-22T14:35:25.019Z,9.20
2022-10-22T14:38:28.171Z,8.00
2022-10-22T14:41:31.943Z,8.17
2022-10-22T14:44:40.007Z,8.43
2022-10-22T14:47:43.444Z,9.20
2022-10-22T14:50:48.240Z,8.67
2022-10-22T14:53:51.467Z,8.60
2022-10-22T14:56:55.054Z,9.40
2022-10-22T14:59:59.923Z,8.50
2022-10-22T15:03:04.329Z,8.77
2022-10-22T15:06:08.347Z,8.70
2022-10-22T15:09:11.596Z,8.90
2022-10-22T15:12:14.748Z,9.50
2022-10-22T15:15:21.998Z,9.40
2022-10-22T15:18:32.176Z,8.30
2022-10-22T15:21:35.387Z,8.73
2022-10-22T15:24:38.480Z,8.87
2022-10-22T15:27:41.613Z,8.30
2022-10-22T15:30:52.797Z,8.17
2022-10-22T15:33:59.507Z,9.20
2022-10-22T15:37:06.765Z,9.77
2022-10-22T15:40:11.227Z,8.33
2022-10-22T15:43:14.457Z,9.20
2022-10-22T15:46:20.635Z,9.57
2022-10-22T15:49:24.995Z,8.27
2022-10-22T15:52:28.089Z,8.70
2022-10-22T15:55:31.547Z,9.27
2022-10-22T15:58:34.728Z,9.60
2022-10-22T16:01:39.659Z,9.13
2022-10-22T16:04:42.990Z,8.83
2022-10-22T16:07:46.297Z,9.40
2022-10-22T16:10:49.698Z,9.47
2022-10-22T16:13:57.137Z,8.47
2022-10-22T16:17:01.793Z,8.90
2022-10-22T16:20:05.327Z,8.63
2022-10-22T16:23:09.038Z,8.97
2022-10-22T16:26:13.161Z,8.83
2022-10-22T16:29:16.822Z,9.83
2022-10-22T16:32:21.555Z,9.10
2022-10-22T16:35:24.657Z,10.23
2022-10-22T16:38:27.840Z,9.03
2022-10-22T16:41:35.333Z,8.90
2022-10-22T16:44:40.228Z,8.57
2022-10-22T16:47:47.044Z,10.30
2022-10-22T16:50:50.120Z,8.90
2022-10-22T16:53:53.745Z,9.90
2022-10-22T16:56:57.174Z,9.03
2022-10-22T17:00:00.258Z,10.03
2022-10-22T17:03:05.128Z,9.17
2022-10-22T17:06:09.262Z,9.03
2022-10-22T17:09:12.650Z,9.87
2022-10-22T17:12:15.887Z,10.07
2022-10-22T17:15:19.087Z,9.07
2022-10-22T17:18:23.618Z,9.80
2022-10-22T17:21:27.109Z,9.57
2022-10-22T17:24:30.195Z,9.17
2022-10-22T17:27:33.386Z,8.50
2022-10-22T17:30:38.982Z,9.10
2022-10-22T17:33:43.742Z,9.40
2022-10-22T17:36:46.894Z,8.77
2022-10-22T17:39:50.048Z,9.57
2022-10-22T17:42:53.241Z,8.63
2022-10-22T17:46:05.303Z,9.43
2022-10-22T17:49:17.306Z,9.10
2022-10-22T17:52:20.593Z,9.63
2022-10-22T17:55:24.512Z,9.47
2022-10-22T17:58:27.728Z,8.70
2022-10-22T18:01:32.741Z,8.97
2022-10-22T18:04:37.376Z,9.30
2022-10-22T18:07:40.494Z,9.33
2022-10-22T18:10:43.755Z,9.13
2022-10-22T18:13:50.589Z,9.20
2022-10-22T18:16:54.650Z,9.67
2022-10-22T18:19:59.235Z,9.07
2022-10-22T18:23:03.725Z,9.33
2022-10-22T18:26:07.556Z,9.40
2022-10-22T18:29:12.134Z,9.20
2022-10-22T18:32:15.280Z,9.10
2022-10-22T18:35:21.321Z,9.10
2022-10-22T18:38:24.753Z,9.27
2022-10-22T18:41:28.802Z,9.00
2022-10-22T18:44:32.446Z,10.33
2022-10-22T18:47:35.696Z,9.27
2022-10-22T18:50:40.204Z,8.60
2022-10-22T18:53:53.718Z,9.67
2022-10-22T18:57:06.836Z,9.40
2022-10-22T19:00:11.327Z,9.10
2022-10-22T19:03:20.526Z,9.30
2022-10-22T19:06:31.986Z,9.67
2022-10-22T19:09:36.709Z,9.53
2022-10-22T19:12:40.550Z,9.10
2022-10-22T19:15:44.022Z,9.93
2022-10-22T19:18:47.252Z,8.93
2022-10-22T19:21:52.524Z,8.83
2022-10-22T19:24:55.886Z,10.07
2022-10-22T19:27:59.165Z,9.67
2022-10-22T19:31:02.868Z,9.30
2022-10-22T19:34:06.604Z,8.97
2022-10-22T19:37:15.958Z,9.60
2022-10-22T19:40:20.694Z,8.80
2022-10-22T19:43:23.966Z,9.80
2022-10-22T19:46:29.688Z,9.03
2022-10-22T19:49:38.440Z,9.37
2022-10-22T19:52:43.504Z,9.57
2022-10-22T19:55:56.127Z,9.10
2022-10-22T19:58:59.691Z,8.53
2022-10-22T20:02:02.841Z,9.60
2022-10-22T20:05:06.923Z,9.07
2022-10-22T20:08:12.544Z,9.10
2022-10-22T20:11:23.925Z,9.23
2022-10-22T20:14:27.252Z,8.50
2022-10-22T20:17:30.659Z,8.83
2022-10-22T20:20:33.739Z,8.83
2022-10-22T20:23:38.878Z,9.03
2022-10-22T20:26:42.333Z,9.60
2022-10-22T20:29:46.016Z,9.17
2022-10-22T20:32:49.530Z,8.90
2022-10-22T20:36:02.878Z,9.43
2022-10-22T20:39:09.904Z,9.27
2022-10-22T20:42:13.000Z,9.20
2022-10-22T20:45:16.114Z,8.77
2022-10-22T20:48:19.906Z,8.70
2022-10-22T20:51:23.478Z,8.60
2022-10-22T20:54:27.993Z,8.83
2022-10-22T20:57:32.103Z,9.83
2022-10-22T21:00:36.986Z,8.67
2022-10-22T21:03:40.878Z,8.80
2022-10-22T21:06:44.343Z,8.70
2022-10-22T21:09:48.786Z,8.97
2022-10-22T21:12:51.814Z,9.40
2022-10-22T21:15:56.628Z,9.30
2022-10-22T21:19:00.914Z,9.40
2022-10-22T21:22:04.430Z,8.10
2022-10-22T21:25:09.825Z,8.80
2022-10-22T21:28:12.910Z,8.70
2022-10-22T21:31:21.909Z,8.87
2022-10-22T21:34:25.320Z,8.10
2022-10-22T21:37:30.150Z,7.83
2022-10-22T21:40:37.076Z,9.47
2022-10-22T21:43:42.216Z,8.43
2022-10-22T21:46:45.703Z,9.30
2022-10-22T21:49:48.798Z,8.50
2022-10-22T21:52:51.854Z,8.47
2022-10-22T21:55:56.287Z,8.10
2022-10-22T21:58:59.627Z,8.50
2022-10-22T22:02:05.627Z,8.90
2022-10-22T22:05:10.046Z,8.10
2022-10-22T22:08:13.578Z,7.73
2022-10-22T22:11:20.398Z,8.50
2022-10-22T22:14:23.524Z,8.80
2022-10-22T22:17:26.627Z,8.00
2022-10-22T22:20:31.046Z,8.77
2022-10-22T22:23:34.805Z,8.00
2022-10-22T22:26:39.327Z,8.47
2022-10-22T22:29:42.350Z,7.90
2022-10-22T22:32:48.532Z,9.17
2022-10-22T22:35:51.559Z,8.43
2022-10-22T22:38:56.130Z,7.83
2022-10-22T22:42:00.894Z,8.03
2022-10-22T22:45:03.932Z,7.93
2022-10-22T22:48:07.620Z,8.93
2022-10-22T22:51:12.253Z,8.27
2022-10-22T22:54:15.358Z,8.10
2022-10-22T22:57:19.794Z,8.27
2022-10-22T23:00:23.014Z,8.20
2022-10-22T23:03:26.291Z,8.00
2022-10-22T23:06:31.493Z,8.47
2022-10-22T23:09:34.560Z,8.90
2022-10-22T23:12:39.261Z,7.83
2022-10-22T23:15:42.513Z,8.10
2022-10-22T23:18:46.502Z,7.90
2022-10-22T23:21:51.401Z,7.40
2022-10-22T23:24:54.689Z,8.47
2022-10-22T23:27:59.576Z,7.87
2022-10-22T23:31:05.334Z,8.00
2022-10-22T23:34:10.386Z,7.37
2022-10-22T23:37:14.027Z,7.50
2022-10-22T23:40:17.179Z,7.93
2022-10-22T23:43:21.714Z,7.73
2022-10-22T23:46:24.801Z,8.20
2022-10-22T23:49:27.964Z,7.50
2022-10-22T23:52:31.036Z,7.43
2022-10-22T23:55:34.622Z,7.03
2022-10-22T23:58:39.176Z,7.63
